Time;durP1;ratioP1;P1;durP2;ratioP2;P2;SDS_P1;SDS_P2;PMS_P1;PMS_P2;Temp;Humidity;BMP_temperature;BMP_pressure;BME280_temperature;BME280_humidity;BME280_pressure;Samples;Min_cycle;Max_cycle;Signal;HPM_P1;HPM_P2
2021/07/07 00:02:22;;;;;;;8.60;6.80;;;;;;;20.65;88.12;99876.94;6226850;28;20080;-63
2021/07/07 00:05:23;;;;;;;11.90;7.00;;;;;;;20.62;86.86;99887.91;6225028;28;20073;-63
2021/07/07 00:08:24;;;;;;;11.30;6.80;;;;;;;20.59;86.48;99880.25;6225394;28;20059;-60
2021/07/07 00:11:25;;;;;;;8.53;7.10;;;;;;;20.56;85.90;99875.25;6223961;28;20049;-59
2021/07/07 00:14:25;;;;;;;8.53;6.90;;;;;;;20.53;86.83;99879.91;6225185;28;20049;-59
2021/07/07 00:17:26;;;;;;;14.30;8.03;;;;;;;20.62;86.96;99885.25;6225072;28;20041;-59
2021/07/07 00:20:34;;;;;;;9.07;7.40;;;;;;;20.64;86.78;99884.09;6224902;28;20532;-59
2021/07/07 00:23:34;;;;;;;9.07;7.05;;;;;;;20.53;88.42;99889.69;6225083;28;20081;-59
2021/07/07 00:26:35;;;;;;;8.77;7.67;;;;;;;20.53;88.41;99893.16;6224826;28;20594;-59
2021/07/07 00:29:36;;;;;;;11.67;7.17;;;;;;;20.59;86.39;99897.00;6225169;28;20053;-59
2021/07/07 00:32:37;;;;;;;8.90;6.90;;;;;;;20.51;86.29;99895.13;6232938;28;20053;-59
2021/07/07 00:35:38;;;;;;;12.30;7.30;;;;;;;20.52;85.34;99895.94;6249322;28;20065;-59
2021/07/07 00:38:38;;;;;;;13.40;7.63;;;;;;;20.42;87.61;99888.13;6249472;28;20049;-59
2021/07/07 00:41:39;;;;;;;9.23;7.63;;;;;;;20.45;87.11;99892.31;6248964;28;20119;-59
2021/07/07 00:44:40;;;;;;;10.47;7.23;;;;;;;20.43;85.73;99895.09;6248968;28;20068;-59
2021/07/07 00:47:46;;;;;;;8.50;7.27;;;;;;;20.32;86.75;99896.25;6249001;28;20049;-59
2021/07/07 00:50:49;;;;;;;10.48;7.28;;;;;;;20.30;87.74;99900.00;6241336;28;20076;-59
2021/07/07 00:53:51;;;;;;;8.57;6.75;;;;;;;20.35;84.45;99892.44;6226018;28;20500;-59
2021/07/07 00:56:52;;;;;;;;;;;;;;;20.35;85.67;99892.44;6249198;28;20049;-59
2021/07/07 00:59:54;;;;;;;8.40;6.97;;;;;;;20.29;86.26;99898.38;6247830;28;19921;-59
2021/07/07 01:02:58;;;;;;;8.77;6.68;;;;;;;20.21;88.32;99895.69;6238242;28;20046;-59
2021/07/07 01:05:59;;;;;;;10.48;7.40;;;;;;;20.19;88.52;99901.13;6222953;28;20058;-59
2021/07/07 01:08:59;;;;;;;8.32;7.30;;;;;;;20.25;87.20;99902.34;6222779;28;20052;-59
2021/07/07 01:12:00;;;;;;;9.23;7.70;;;;;;;20.20;88.28;99894.88;6223883;28;20401;-58
2021/07/07 01:15:09;;;;;;;14.40;7.10;;;;;;;20.07;87.55;99892.66;6222668;28;20504;-59
2021/07/07 01:18:11;;;;;;;8.40;6.88;;;;;;;20.08;87.93;99893.50;6223746;28;20100;-59
2021/07/07 01:21:12;;;;;;;8.20;7.13;;;;;;;20.02;88.24;99887.00;6223805;28;20448;-59
2021/07/07 01:24:14;;;;;;;9.37;7.10;;;;;;;20.04;88.31;99894.81;6223595;28;20041;-59
2021/07/07 01:27:15;;;;;;;8.55;7.47;;;;;;;19.95;89.39;99888.63;6222448;28;20052;-59
2021/07/07 01:30:21;;;;;;;11.80;7.60;;;;;;;19.86;88.22;99886.94;6222796;28;20046;-59
2021/07/07 01:33:22;;;;;;;10.48;7.00;;;;;;;19.77;88.65;99894.00;6222166;28;20432;-63
2021/07/07 01:36:22;;;;;;;11.37;7.47;;;;;;;19.81;88.31;99889.19;6223540;28;20056;-62
2021/07/07 01:39:23;;;;;;;7.50;6.60;;;;;;;19.78;87.16;99881.59;6223438;28;20070;-63
2021/07/07 01:42:24;;;;;;;8.53;7.37;;;;;;;19.80;89.04;99893.66;6238675;28;20144;-63
2021/07/07 01:45:26;;;;;;;12.45;7.50;;;;;;;19.76;88.87;99894.97;6223165;28;20049;-62
2021/07/07 01:48:27;;;;;;;;;;;;;;;19.72;89.30;99896.28;6223537;28;20038;-63
2021/07/07 01:51:28;;;;;;;8.90;7.05;;;;;;;19.82;89.57;99899.63;6232269;28;19975;-63
2021/07/07 01:54:29;;;;;;;9.40;7.30;;;;;;;19.75;90.45;99897.78;6241885;28;20615;-63
2021/07/07 01:57:43;;;;;;;10.57;7.43;;;;;;;19.69;90.23;99899.22;6233550;28;20045;-63
2021/07/07 02:00:43;;;;;;;7.85;7.05;;;;;;;19.73;90.05;99906.72;6247346;28;20104;-63
2021/07/07 02:03:44;;;;;;;8.17;7.37;;;;;;;19.60;90.79;99911.56;6247153;28;20517;-63
2021/07/07 02:06:45;;;;;;;8.33;7.30;;;;;;;19.61;90.34;99899.16;6247126;28;20077;-63
2021/07/07 02:09:46;;;;;;;8.52;6.85;;;;;;;19.55;90.36;99900.59;6247370;28;20053;-60
2021/07/07 02:12:47;;;;;;;11.63;7.45;;;;;;;19.48;91.84;99900.41;6245851;28;20045;-60
2021/07/07 02:15:48;;;;;;;9.38;7.15;;;;;;;19.46;91.68;99905.03;6247076;28;20045;-59
2021/07/07 02:18:49;;;;;;;9.70;7.63;;;;;;;19.51;90.86;99900.09;6223534;28;20338;-59
2021/07/07 02:21:50;;;;;;;10.50;8.20;;;;;;;19.41;92.59;99901.16;6222578;28;20048;-59
2021/07/07 02:24:51;;;;;;;10.83;7.17;;;;;;;19.45;90.70;99898.06;6221414;28;20048;-59
2021/07/07 02:27:52;;;;;;;9.27;7.57;;;;;;;19.39;91.47;99895.19;6221900;28;20060;-59
2021/07/07 02:30:55;;;;;;;9.43;7.38;;;;;;;19.32;92.23;99906.41;6221534;28;20065;-59
2021/07/07 02:33:56;;;;;;;11.85;8.27;;;;;;;19.29;90.94;99900.56;6222577;28;20053;-59
2021/07/07 02:36:56;;;;;;;8.77;7.87;;;;;;;19.31;92.15;99904.75;6222395;28;20124;-59
2021/07/07 02:39:57;;;;;;;9.90;7.97;;;;;;;19.25;92.18;99912.44;6223156;28;20064;-59
2021/07/07 02:42:59;;;;;;;8.37;7.30;;;;;;;19.28;90.58;99912.16;6222074;28;20054;-59
2021/07/07 02:46:00;;;;;;;10.45;7.28;;;;;;;19.35;90.14;99907.06;6221984;28;20382;-59
2021/07/07 02:49:01;;;;;;;9.77;7.45;;;;;;;19.36;89.86;99908.75;6220770;28;20053;-60
2021/07/07 02:52:03;;;;;;;10.00;7.30;;;;;;;19.37;89.53;99908.56;6237415;28;20489;-58
2021/07/07 02:55:04;;;;;;;10.98;7.65;;;;;;;19.42;88.80;99913.44;6221763;28;20045;-59
2021/07/07 02:58:05;;;;;;;;;;;;;;;19.42;89.06;99908.13;6222712;28;20042;-59
2021/07/07 03:01:06;;;;;;;9.32;7.15;;;;;;;19.40;89.93;99908.28;6221713;28;19928;-59
2021/07/07 03:04:07;;;;;;;9.95;7.28;;;;;;;19.47;89.63;99906.66;6221509;28;20053;-59
2021/07/07 03:07:08;;;;;;;14.37;8.33;;;;;;;19.39;91.06;99914.53;6221380;28;20071;-59
2021/07/07 03:10:11;;;;;;;13.20;8.03;;;;;;;19.44;89.93;99917.56;6220730;28;20062;-60
2021/07/07 03:13:13;;;;;;;10.02;8.00;;;;;;;19.53;89.39;99924.56;6220462;28;20042;-60
2021/07/07 03:16:14;;;;;;;12.50;7.80;;;;;;;19.35;90.67;99922.94;6221857;28;20064;-59
2021/07/07 03:19:15;;;;;;;13.43;7.93;;;;;;;19.46;89.29;99923.53;6204220;28;20054;-59
2021/07/07 03:22:17;;;;;;;10.67;7.57;;;;;;;19.46;88.17;99923.53;6221595;28;20049;-59
2021/07/07 03:25:18;;;;;;;12.10;8.00;;;;;;;19.41;89.08;99935.56;6221464;28;20408;-59
2021/07/07 03:28:20;;;;;;;10.27;7.67;;;;;;;19.40;88.88;99924.16;6221707;28;20081;-58
2021/07/07 03:31:21;;;;;;;9.13;8.02;;;;;;;19.37;91.17;99928.91;6221428;28;20136;-59
2021/07/07 03:34:22;;;;;;;10.17;7.83;;;;;;;19.35;89.46;99920.31;6244139;28;20045;-59
2021/07/07 03:37:23;;;;;;;11.40;7.80;;;;;;;19.39;88.52;99927.78;6246122;28;20053;-59
2021/07/07 03:40:26;;;;;;;10.60;7.63;;;;;;;19.49;87.85;99928.50;6250649;28;20499;-59
2021/07/07 03:43:27;;;;;;;8.40;7.25;;;;;;;19.50;87.73;99927.53;6250728;28;20052;-59
2021/07/07 03:46:28;;;;;;;12.37;8.00;;;;;;;19.48;89.05;99940.09;6250430;28;20049;-59
2021/07/07 03:49:29;;;;;;;14.60;7.40;;;;;;;19.50;89.02;99922.25;6250632;28;20053;-63
2021/07/07 03:52:29;;;;;;;9.13;7.77;;;;;;;19.62;88.76;99932.56;6250335;28;20061;-63
2021/07/07 03:55:31;;;;;;;9.10;7.83;;;;;;;19.64;90.82;99947.34;6250337;28;20034;-63
2021/07/07 03:58:32;;;;;;;11.43;7.70;;;;;;;19.69;90.36;99938.91;6249006;28;20107;-63
2021/07/07 04:01:32;;;;;;;11.20;8.27;;;;;;;19.77;90.08;99939.00;6250013;28;20045;-63
2021/07/07 04:04:35;;;;;;;10.33;8.07;;;;;;;19.86;89.49;99942.53;6249732;28;20584;-63
2021/07/07 04:07:37;;;;;;;12.60;7.32;;;;;;;19.93;87.80;99948.84;6249650;28;20069;-63
2021/07/07 04:10:37;;;;;;;9.35;7.88;;;;;;;20.04;88.29;99947.75;6249689;28;20048;-63
2021/07/07 04:13:39;;;;;;;12.95;7.30;;;;;;;20.10;87.82;99950.59;6232013;28;20048;-63
2021/07/07 04:16:40;;;;;;;11.50;7.50;;;;;;;20.18;87.11;99947.19;6249870;28;20057;-63
2021/07/07 04:19:41;;;;;;;9.63;7.63;;;;;;;20.30;89.14;99960.94;6249457;28;20072;-63
2021/07/07 04:22:42;;;;;;;14.27;8.00;;;;;;;20.35;87.33;99963.97;6248208;28;20049;-63
2021/07/07 04:25:43;;;;;;;10.27;7.30;;;;;;;20.45;87.74;99956.72;6248162;28;20377;-63
2021/07/07 04:28:43;;;;;;;13.60;7.70;;;;;;;20.55;85.39;99961.91;6249437;28;20041;-63
2021/07/07 04:31:44;;;;;;;16.03;7.60;;;;;;;20.68;84.06;99972.06;6249369;28;20104;-63
2021/07/07 04:34:45;;;;;;;10.60;7.27;;;;;;;20.76;86.39;99974.75;6248123;28;20045;-63
2021/07/07 04:37:47;;;;;;;9.10;7.43;;;;;;;20.83;86.62;99973.09;6249443;28;20077;-63
2021/07/07 04:40:48;;;;;;;9.13;7.22;;;;;;;20.86;85.16;99975.44;6248224;28;20511;-63
2021/07/07 04:43:49;;;;;;;11.00;7.30;;;;;;;21.01;82.96;99972.16;6249217;28;20568;-63
2021/07/07 04:46:50;;;;;;;8.20;7.40;;;;;;;21.08;84.98;99973.97;6249165;28;20053;-63
2021/07/07 04:49:51;;;;;;;9.90;7.83;;;;;;;21.16;84.80;99970.50;6247765;28;20057;-63
2021/07/07 04:52:51;;;;;;;12.97;7.83;;;;;;;21.24;83.97;99973.16;6247703;28;20046;-63
2021/07/07 04:55:52;;;;;;;13.67;7.73;;;;;;;21.32;83.31;99973.16;6248895;28;20583;-63
2021/07/07 04:58:53;;;;;;;13.17;6.63;;;;;;;21.40;83.59;99982.16;6248966;28;20538;-63
2021/07/07 05:01:54;;;;;;;8.50;7.33;;;;;;;21.52;79.89;99988.81;6248807;28;20053;-63
2021/07/07 05:04:54;;;;;;;12.30;7.50;;;;;;;21.60;83.99;99982.66;6248696;28;20091;-63
2021/07/07 05:07:55;;;;;;;11.53;7.10;;;;;;;21.70;83.13;99989.47;6248570;28;20066;-63
2021/07/07 05:10:56;;;;;;;10.60;6.80;;;;;;;21.80;84.30;99991.09;6248710;28;20408;-63
2021/07/07 05:13:57;;;;;;;8.40;6.82;;;;;;;21.93;80.52;99994.09;6247329;28;20168;-63
2021/07/07 05:16:57;;;;;;;12.47;7.53;;;;;;;22.04;77.50;99998.22;6247383;28;20411;-63
2021/07/07 05:19:59;;;;;;;9.53;6.70;;;;;;;22.12;78.83;99995.53;6248319;28;20445;-63
2021/07/07 05:23:06;;;;;;;10.75;6.85;;;;;;;22.22;77.23;100000.66;6247086;28;20045;-63
2021/07/07 05:26:07;;;;;;;11.48;6.93;;;;;;;22.34;76.25;99996.66;6248330;28;20050;-63
2021/07/07 05:29:07;;;;;;;8.80;6.83;;;;;;;22.40;74.16;100008.44;6246858;28;20057;-63
2021/07/07 05:32:09;;;;;;;11.03;6.60;;;;;;;22.47;75.00;100009.41;6248338;28;20053;-63
2021/07/07 05:35:10;;;;;;;8.27;5.72;;;;;;;22.55;75.13;100006.72;6246838;28;20502;-63
2021/07/07 05:38:11;;;;;;;9.10;6.00;;;;;;;22.60;71.44;100012.34;6246809;28;20061;-63
2021/07/07 05:41:11;;;;;;;12.67;5.43;;;;;;;22.73;69.23;100017.09;6247696;28;20136;-63
2021/07/07 05:44:12;;;;;;;7.43;5.45;;;;;;;22.90;70.91;100026.69;6246527;28;20046;-63
2021/07/07 05:47:13;;;;;;;9.20;5.57;;;;;;;23.11;67.91;100020.75;6238317;28;20054;-63
2021/07/07 05:50:15;;;;;;;9.75;6.25;;;;;;;23.11;69.12;100023.41;6237829;28;20045;-63
2021/07/07 05:53:16;;;;;;;10.50;6.78;;;;;;;23.27;67.74;100022.50;6235118;28;20068;-63
2021/07/07 05:56:17;;;;;;;8.73;6.13;;;;;;;23.27;69.34;100021.66;6247272;28;20064;-60
2021/07/07 05:59:18;;;;;;;8.13;5.40;;;;;;;23.31;68.24;100018.47;6247337;28;20041;-60
2021/07/07 06:02:18;;;;;;;10.10;5.83;;;;;;;23.33;69.89;100010.31;6239197;28;20057;-60
2021/07/07 06:05:21;;;;;;;7.73;5.93;;;;;;;23.27;67.30;100025.16;6221967;28;20140;-59
2021/07/07 06:08:21;;;;;;;8.13;6.10;;;;;;;23.43;68.93;100026.03;6237595;28;20049;-59
2021/07/07 06:11:22;;;;;;;7.50;5.43;;;;;;;23.67;65.59;100027.69;6214084;28;20056;-60
2021/07/07 06:14:23;;;;;;;9.03;5.37;;;;;;;23.72;66.04;100026.16;6247013;28;20069;-63
2021/07/07 06:17:24;;;;;;;16.80;5.65;;;;;;;23.84;64.63;100033.72;6245827;28;20045;-63
2021/07/07 06:20:25;;;;;;;14.47;5.90;;;;;;;23.81;65.48;100034.91;6245697;28;20175;-63
2021/07/07 06:23:26;;;;;;;14.52;5.65;;;;;;;23.84;65.40;100037.19;6227577;28;20389;-63
2021/07/07 06:26:28;;;;;;;11.70;5.50;;;;;;;23.84;66.71;100039.88;6241169;28;20308;-63
2021/07/07 06:29:29;;;;;;;11.13;6.05;;;;;;;23.97;63.59;100041.09;6245688;28;20336;-64
2021/07/07 06:32:30;;;;;;;10.93;5.67;;;;;;;23.98;66.83;100043.59;6246661;28;20064;-64
2021/07/07 06:35:35;;;;;;;8.90;5.53;;;;;;;24.12;65.00;100031.28;6245469;28;20049;-63
2021/07/07 06:38:36;;;;;;;7.93;5.30;;;;;;;24.28;61.73;100036.44;6246556;28;20048;-64
2021/07/07 06:41:37;;;;;;;12.90;5.97;;;;;;;24.44;61.48;100035.44;6241525;28;20042;-63
2021/07/07 06:44:37;;;;;;;14.10;5.40;;;;;;;24.57;61.69;100040.16;6222047;28;20052;-63
2021/07/07 06:47:39;;;;;;;18.40;5.53;;;;;;;24.52;62.17;100043.38;6226624;28;20645;-64
2021/07/07 06:50:40;;;;;;;10.93;6.22;;;;;;;24.60;62.77;100045.09;6245225;28;20309;-63
2021/07/07 06:53:41;;;;;;;10.15;5.45;;;;;;;24.84;61.26;100040.50;6246331;28;20120;-63
2021/07/07 06:56:41;;;;;;;13.47;5.70;;;;;;;24.79;63.44;100043.72;6241347;28;20045;-64
2021/07/07 06:59:43;;;;;;;7.03;5.50;;;;;;;25.07;61.63;100046.50;6232414;28;20061;-64
2021/07/07 07:02:44;;;;;;;11.98;5.78;;;;;;;25.36;58.77;100046.63;6220546;28;20038;-63
2021/07/07 07:05:45;;;;;;;15.82;5.57;;;;;;;25.14;58.40;100047.41;6239786;28;20398;-63
2021/07/07 07:08:45;;;;;;;14.93;5.97;;;;;;;25.12;60.35;100049.44;6230410;28;20112;-63
2021/07/07 07:11:46;;;;;;;7.70;5.03;;;;;;;25.04;60.38;100040.72;6225221;28;20411;-61
2021/07/07 07:14:50;;;;;;;7.70;4.90;;;;;;;25.19;59.86;100048.69;6242348;28;20037;-62
2021/07/07 07:17:51;;;;;;;5.53;4.65;;;;;;;25.71;53.99;100045.72;6251297;28;20041;-61
2021/07/07 07:20:52;;;;;;;8.27;5.18;;;;;;;25.79;50.84;100041.28;6250974;28;20412;-61
2021/07/07 07:23:52;;;;;;;7.07;4.63;;;;;;;25.49;54.89;100038.72;6233500;28;20052;-62
2021/07/07 07:26:53;;;;;;;7.90;4.75;;;;;;;25.82;52.38;100040.88;6251004;28;20049;-62
2021/07/07 07:29:54;;;;;;;7.17;4.77;;;;;;;25.53;55.32;100043.53;6249583;28;20042;-62
2021/07/07 07:32:55;;;;;;;6.78;4.50;;;;;;;25.37;55.68;100040.25;6251030;28;20045;-61
2021/07/07 07:35:55;;;;;;;8.37;4.70;;;;;;;25.26;56.91;100046.94;6250774;28;20037;-61
2021/07/07 07:38:59;;;;;;;10.15;5.00;;;;;;;25.14;57.24;100038.56;6250685;28;20046;-61
2021/07/07 07:42:00;;;;;;;7.35;4.38;;;;;;;25.19;55.82;100041.50;6249217;28;20523;-62
2021/07/07 07:45:01;;;;;;;6.63;4.50;;;;;;;25.25;52.65;100042.63;6250549;28;20041;-62
2021/07/07 07:48:03;;;;;;;6.43;4.65;;;;;;;25.21;56.85;100044.03;6232808;28;20045;-61
2021/07/07 07:51:04;;;;;;;5.78;4.93;;;;;;;25.13;56.32;100042.25;6249111;28;20045;-61
2021/07/07 07:54:05;;;;;;;7.72;4.50;;;;;;;25.31;54.18;100041.88;6250385;28;20042;-61
2021/07/07 07:57:06;;;;;;;12.90;4.70;;;;;;;25.41;55.79;100042.38;6250917;28;20041;-61
2021/07/07 08:00:19;;;;;;;7.53;5.33;;;;;;;25.77;53.24;100043.31;6250233;28;20500;-62
2021/07/07 08:03:20;;;;;;;7.53;4.63;;;;;;;25.70;53.29;100043.25;6249924;28;20451;-61
2021/07/07 08:06:20;;;;;;;6.40;4.72;;;;;;;25.54;58.81;100039.00;6250115;28;20041;-61
2021/07/07 08:09:21;;;;;;;6.68;4.82;;;;;;;26.25;49.38;100038.97;6248672;28;20057;-61
2021/07/07 08:12:23;;;;;;;7.20;4.72;;;;;;;26.61;49.64;100051.31;6250020;28;20044;-62
2021/07/07 08:15:26;;;;;;;13.55;5.03;;;;;;;26.63;50.72;100043.94;6249779;28;20076;-62
2021/07/07 08:18:27;;;;;;;213.98;19.17;;;;;;;26.45;53.26;100041.75;6243738;28;20479;-60
2021/07/07 08:21:27;;;;;;;9.57;4.93;;;;;;;26.44;50.93;100044.59;6253884;28;20046;-60
2021/07/07 08:24:28;;;;;;;5.72;4.30;;;;;;;26.46;50.51;100048.75;6232541;28;20101;-60
2021/07/07 08:27:29;;;;;;;6.60;4.67;;;;;;;26.36;52.14;100050.13;6235905;28;20038;-60
2021/07/07 08:30:30;;;;;;;8.50;4.30;;;;;;;26.33;53.13;100051.34;6232715;28;20295;-62
2021/07/07 08:33:31;;;;;;;6.60;4.40;;;;;;;26.33;54.56;100051.34;6227476;28;20053;-68
2021/07/07 08:36:32;;;;;;;7.03;5.33;;;;;;;26.29;59.73;100058.91;6225385;28;20041;-68
2021/07/07 08:39:33;;;;;;;6.22;5.05;;;;;;;26.14;78.27;100061.72;6231412;28;20792;-68
2021/07/07 08:42:35;;;;;;;5.32;4.78;;;;;;;26.11;68.42;100061.28;6223255;28;20111;-68
2021/07/07 08:45:36;;;;;;;8.68;4.88;;;;;;;25.97;62.78;100062.22;6233987;28;20545;-68
2021/07/07 08:48:37;;;;;;;7.47;4.43;;;;;;;26.06;56.24;100061.03;6241572;28;20057;-72
2021/07/07 08:51:42;;;;;;;12.25;5.00;;;;;;;26.13;53.74;100062.75;6249171;28;20049;-72
2021/07/07 08:54:46;;;;;;;7.57;4.43;;;;;;;26.26;54.86;100062.00;6248908;28;20132;-72
2021/07/07 08:57:49;;;;;;;8.57;4.60;;;;;;;26.35;52.69;100060.00;6248931;28;20045;-72
2021/07/07 09:00:51;;;;;;;5.28;4.43;;;;;;;26.41;52.38;100069.91;6248732;28;20048;-72
2021/07/07 09:03:51;;;;;;;5.90;4.47;;;;;;;26.52;52.15;100072.03;6247453;28;20136;-72
2021/07/07 09:07:00;;;;;;;8.98;4.90;;;;;;;26.46;52.19;100058.59;6248846;28;20495;-72
2021/07/07 09:10:01;;;;;;;7.13;4.32;;;;;;;26.60;52.13;100064.91;6247462;28;20083;-72
2021/07/07 09:13:10;;;;;;;13.75;4.70;;;;;;;26.61;50.91;100071.91;6247250;28;20463;-72
2021/07/07 09:16:13;;;;;;;11.35;4.80;;;;;;;26.78;49.64;100062.50;6247282;28;20052;-72
2021/07/07 09:19:19;;;;;;;6.05;4.45;;;;;;;26.96;50.37;100070.00;6248387;28;20045;-72
2021/07/07 09:22:24;;;;;;;7.07;4.55;;;;;;;27.03;51.20;100070.03;6246925;28;20113;-72
2021/07/07 09:25:29;;;;;;;5.95;4.70;;;;;;;27.11;50.36;100073.34;6230750;28;20052;-72
2021/07/07 09:28:40;;;;;;;6.18;4.45;;;;;;;27.23;53.74;100075.47;6248046;28;20073;-72
2021/07/07 09:31:42;;;;;;;5.47;3.80;;;;;;;27.38;50.25;100078.78;6246816;28;20046;-72
2021/07/07 09:34:49;;;;;;;10.60;4.22;;;;;;;27.45;47.08;100070.78;6247567;28;20443;-74
2021/07/07 09:37:56;;;;;;;8.90;4.40;;;;;;;27.43;49.21;100081.72;6247490;28;20037;-71
2021/07/07 09:40:57;;;;;;;6.10;4.32;;;;;;;27.35;48.88;100078.41;6247816;28;20459;-71
2021/07/07 09:43:58;;;;;;;6.90;4.70;;;;;;;27.53;50.63;100084.81;6247779;28;20048;-72
2021/07/07 09:47:04;;;;;;;5.25;4.40;;;;;;;27.52;50.46;100077.78;6247742;28;20042;-71
2021/07/07 09:50:06;;;;;;;8.55;4.50;;;;;;;27.58;52.13;100078.84;6247629;28;20041;-71
2021/07/07 09:53:14;;;;;;;6.28;4.57;;;;;;;27.63;50.08;100079.03;6247395;28;20041;-72
2021/07/07 09:56:15;;;;;;;5.45;4.57;;;;;;;27.60;49.77;100079.47;6247557;28;20037;-72
2021/07/07 09:59:16;;;;;;;7.47;4.57;;;;;;;27.64;50.77;100078.03;6221320;28;20061;-71
2021/07/07 10:02:17;;;;;;;5.32;4.50;;;;;;;27.42;49.32;100074.69;6223005;28;20512;-72
2021/07/07 10:05:19;;;;;;;7.82;4.55;;;;;;;27.47;49.16;100068.75;6221700;28;20061;-72
2021/07/07 10:08:20;;;;;;;9.32;4.40;;;;;;;27.58;50.49;100069.97;6222175;28;20052;-71
2021/07/07 10:11:22;;;;;;;8.48;4.82;;;;;;;27.75;52.23;100065.84;6222641;28;20095;-71
2021/07/07 10:14:24;;;;;;;9.45;4.72;;;;;;;27.96;46.38;100066.72;6237560;28;20404;-72
2021/07/07 10:17:25;;;;;;;6.32;4.32;;;;;;;28.08;46.11;100065.06;6222547;28;20042;-71
2021/07/07 10:20:25;;;;;;;7.38;4.90;;;;;;;28.13;50.70;100070.63;6222416;28;20045;-71
2021/07/07 10:23:27;;;;;;;5.93;4.47;;;;;;;28.03;50.36;100071.03;6222536;28;20042;-70
2021/07/07 10:26:29;;;;;;;7.00;4.88;;;;;;;28.23;48.39;100073.72;6237773;28;20088;-69
2021/07/07 10:29:30;;;;;;;5.05;4.25;;;;;;;28.20;51.25;100067.94;6222311;28;20042;-70
2021/07/07 10:32:31;;;;;;;7.20;4.47;;;;;;;28.21;49.84;100067.72;6232752;28;20326;-70
2021/07/07 10:35:31;;;;;;;6.82;4.60;;;;;;;28.21;48.14;100061.53;6245533;28;20041;-71
2021/07/07 10:38:33;;;;;;;6.95;4.60;;;;;;;28.33;50.02;100054.47;6229153;28;20045;-72
2021/07/07 10:41:43;;;;;;;6.57;4.80;;;;;;;28.38;49.74;100056.56;6220986;28;20057;-71
2021/07/07 10:44:46;;;;;;;5.65;4.70;;;;;;;28.48;48.51;100055.06;6222111;28;20050;-70
2021/07/07 10:47:46;;;;;;;8.48;4.53;;;;;;;28.77;49.49;100054.81;6221786;28;20061;-70
2021/07/07 10:50:47;;;;;;;4.85;4.45;;;;;;;28.60;48.09;100054.44;6204800;28;20492;-70
2021/07/07 10:53:48;;;;;;;5.63;4.28;;;;;;;28.51;46.96;100052.00;6220690;28;20048;-71
2021/07/07 10:56:50;;;;;;;6.82;4.20;;;;;;;28.31;48.17;100061.91;6208215;28;20041;-71
2021/07/07 10:59:55;;;;;;;7.30;4.63;;;;;;;28.20;48.54;100057.19;6220615;28;20455;-70
2021/07/07 11:03:21;;;;;;;7.15;4.55;;;;;;;28.33;48.86;100059.84;6220433;28;20053;-70
2021/07/07 11:06:21;;;;;;;9.02;4.60;;;;;;;28.38;47.50;100057.38;6232875;28;20381;-71
2021/07/07 11:09:26;;;;;;;5.95;4.88;;;;;;;28.39;48.53;100059.00;6244500;28;20042;-72
2021/07/07 11:12:39;;;;;;;5.80;4.25;;;;;;;28.55;46.09;100048.91;6254086;28;20080;-71
2021/07/07 11:15:42;;;;;;;9.13;4.97;;;;;;;28.77;45.48;100050.25;6221774;28;20401;-71
2021/07/07 11:18:46;;;;;;;8.77;4.13;;;;;;;28.85;46.07;100050.00;6220363;28;20053;-70
2021/07/07 11:21:49;;;;;;;4.78;4.28;;;;;;;29.08;46.24;100054.84;6236380;28;20138;-70
2021/07/07 11:24:57;;;;;;;7.95;4.57;;;;;;;29.14;45.58;100061.25;6236533;28;20049;-71
2021/07/07 11:27:59;;;;;;;8.60;4.80;;;;;;;29.11;44.59;100043.69;6237233;28;20048;-71
2021/07/07 11:31:01;;;;;;;5.68;4.30;;;;;;;29.17;49.18;100062.69;6244495;28;20068;-70
2021/07/07 11:34:02;;;;;;;9.20;4.47;;;;;;;29.33;46.24;100051.44;6233482;28;20045;-72
2021/07/07 11:37:04;;;;;;;9.18;4.53;;;;;;;29.45;47.66;100052.38;6231718;28;20042;-71
2021/07/07 11:40:21;;;;;;;7.20;4.53;;;;;;;29.49;46.33;100048.22;6220648;28;20400;-71
2021/07/07 11:43:29;;;;;;;6.38;4.60;;;;;;;29.62;41.39;100047.28;6221365;28;20046;-71
2021/07/07 11:46:31;;;;;;;9.35;4.63;;;;;;;29.84;43.03;100047.78;6221702;28;20050;-71
2021/07/07 11:49:32;;;;;;;5.18;4.05;;;;;;;29.85;40.48;100046.72;6221280;28;20508;-71
2021/07/07 11:52:33;;;;;;;5.53;4.07;;;;;;;29.91;42.54;100053.06;6220139;28;20053;-71
2021/07/07 11:56:00;;;;;;;5.00;4.18;;;;;;;29.99;41.76;100049.28;6221423;28;20038;-71
2021/07/07 11:59:04;;;;;;;7.03;4.70;;;;;;;30.06;40.09;100050.88;6234862;28;20045;-72
2021/07/07 12:02:05;;;;;;;6.18;4.20;;;;;;;30.17;43.47;100054.69;6224428;28;20049;-75
2021/07/07 12:05:06;;;;;;;8.57;4.60;;;;;;;30.15;43.09;100051.41;6225557;28;20532;-77
2021/07/07 12:08:23;;;;;;;;;;;;;;;30.10;42.78;100053.94;6225203;28;20053;-70
2021/07/07 12:11:24;;;;;;;5.32;4.78;;;;;;;30.11;43.36;100050.22;6241417;28;20329;-74
2021/07/07 12:14:33;;;;;;;7.93;4.43;;;;;;;30.11;43.05;100045.66;6247044;28;20041;-74
2021/07/07 12:17:44;;;;;;;7.90;4.32;;;;;;;30.30;44.42;100051.91;6249616;28;20088;-69
2021/07/07 12:20:45;;;;;;;5.78;4.65;;;;;;;30.55;44.04;100051.00;6248129;28;20155;-69
2021/07/07 12:23:50;;;;;;;6.45;4.88;;;;;;;30.86;45.21;100049.19;6231786;28;20504;-70
2021/07/07 12:27:06;;;;;;;12.35;4.78;;;;;;;30.89;42.08;100049.59;6248250;28;20052;-70
2021/07/07 12:30:07;;;;;;;6.82;4.65;;;;;;;30.47;41.83;100043.22;6248117;28;20075;-69
2021/07/07 12:33:08;;;;;;;5.43;4.18;;;;;;;30.01;43.08;100052.59;6248000;28;20033;-70
2021/07/07 12:36:11;;;;;;;6.53;4.60;;;;;;;30.01;43.73;100042.63;6248086;28;20120;-69
2021/07/07 12:39:21;;;;;;;6.88;4.72;;;;;;;30.43;45.46;100048.22;6249268;28;20048;-70
2021/07/07 12:42:34;;;;;;;6.47;4.60;;;;;;;30.81;45.82;100049.88;6248876;28;20091;-70
2021/07/07 12:45:35;;;;;;;6.45;4.30;;;;;;;31.16;39.54;100054.59;6247895;28;20046;-69
2021/07/07 12:48:49;;;;;;;;;;;;;;;31.38;39.54;100051.38;6249331;28;20046;-70
2021/07/07 12:51:50;;;;;;;5.78;4.50;;;;;;;31.25;40.96;100050.53;6248858;28;20295;-70
2021/07/07 12:55:21;;;;;;;4.82;4.28;;;;;;;31.12;43.53;100045.34;6248624;28;20480;-70
2021/07/07 12:58:22;;;;;;;6.72;4.78;;;;;;;30.67;46.29;100048.38;6248631;28;20045;-70
2021/07/07 13:01:28;;;;;;;5.93;4.45;;;;;;;30.27;46.10;100049.63;6247372;28;20396;-70
2021/07/07 13:04:29;;;;;;;5.88;4.65;;;;;;;30.56;44.91;100041.03;6247339;28;20053;-70
2021/07/07 13:07:30;;;;;;;5.95;4.70;;;;;;;30.63;46.16;100041.81;6248362;28;20060;-70
2021/07/07 13:10:42;;;;;;;7.13;4.53;;;;;;;30.85;43.17;100048.38;6247595;28;20457;-70
2021/07/07 13:13:44;;;;;;;11.10;4.70;;;;;;;30.92;42.50;100053.69;6248073;28;20064;-70
2021/07/07 13:16:54;;;;;;;6.20;4.47;;;;;;;30.86;43.76;100052.69;6248225;28;20116;-70
2021/07/07 13:20:00;;;;;;;11.13;5.20;;;;;;;31.15;40.94;100052.13;6248242;28;20099;-70
2021/07/07 13:23:02;;;;;;;6.47;4.93;;;;;;;31.23;43.68;100058.00;6248031;28;20095;-70
2021/07/07 13:26:21;;;;;;;5.68;4.47;;;;;;;30.90;43.51;100061.97;6246831;28;20151;-70
2021/07/07 13:29:34;;;;;;;7.63;4.93;;;;;;;30.39;44.99;100068.56;6246718;28;20037;-70
2021/07/07 13:32:35;;;;;;;5.90;4.68;;;;;;;30.05;44.73;100065.38;6246719;28;20042;-70
2021/07/07 13:35:35;;;;;;;8.80;5.13;;;;;;;29.81;45.37;100064.31;6246628;28;20052;-70
2021/07/07 13:38:36;;;;;;;5.75;4.85;;;;;;;29.70;44.03;100065.03;6247702;28;20190;-69
2021/07/07 13:41:38;;;;;;;5.28;4.65;;;;;;;29.51;46.04;100062.25;6246505;28;20049;-70
2021/07/07 13:44:38;;;;;;;6.10;4.97;;;;;;;29.48;44.61;100056.50;6229948;28;20046;-70
2021/07/07 13:47:40;;;;;;;5.03;4.30;;;;;;;29.46;45.20;100062.06;6246461;28;20457;-73
2021/07/07 13:50:41;;;;;;;10.57;5.20;;;;;;;29.34;48.61;100061.13;6246348;28;20073;-69
2021/07/07 13:53:42;;;;;;;8.85;4.80;;;;;;;29.27;49.23;100063.84;6247302;28;20480;-69
2021/07/07 13:56:42;;;;;;;8.90;5.18;;;;;;;29.25;46.36;100059.75;6229739;28;20448;-69
2021/07/07 13:59:44;;;;;;;8.52;5.40;;;;;;;29.30;46.49;100062.59;6246010;28;20037;-69
2021/07/07 14:02:45;;;;;;;5.47;4.65;;;;;;;29.61;45.15;100060.94;6229603;28;20038;-69
2021/07/07 14:05:46;;;;;;;13.85;5.00;;;;;;;29.82;46.65;100070.56;6245672;28;20060;-70
2021/07/07 14:08:47;;;;;;;5.35;4.80;;;;;;;29.96;45.02;100065.84;6245864;28;20492;-70
2021/07/07 14:11:48;;;;;;;5.35;4.40;;;;;;;30.19;41.55;100060.69;6247004;28;20055;-69